sensor_id;sensor_type;location;lat;lon;timestamp;P1;durP1;ratioP1;P2;durP2;ratioP2
77012;SDS011;67260;53.130;17.982;2023-07-20T00:01:26;6.40;;;3.50;;
77012;SDS011;67260;53.130;17.982;2023-07-20T00:03:52;6.30;;;3.50;;
77012;SDS011;67260;53.130;17.982;2023-07-20T00:06:21;6.90;;;3.20;;
77012;SDS011;67260;53.130;17.982;2023-07-20T00:08:48;7.10;;;3.30;;
77012;SDS011;67260;53.130;17.982;2023-07-20T00:11:14;8.40;;;3.60;;
77012;SDS011;67260;53.130;17.982;2023-07-20T00:13:40;7.00;;;3.40;;
77012;SDS011;67260;53.130;17.982;2023-07-20T00:16:06;6.70;;;3.50;;
77012;SDS011;67260;53.130;17.982;2023-07-20T00:20:58;5.60;;;3.60;;
77012;SDS011;67260;53.130;17.982;2023-07-20T00:23:28;5.60;;;3.30;;
77012;SDS011;67260;53.130;17.982;2023-07-20T00:25:54;6.20;;;3.50;;
77012;SDS011;67260;53.130;17.982;2023-07-20T00:28:20;6.20;;;3.70;;
77012;SDS011;67260;53.130;17.982;2023-07-20T00:30:48;6.40;;;3.90;;
77012;SDS011;67260;53.130;17.982;2023-07-20T00:33:16;7.00;;;3.70;;
77012;SDS011;67260;53.130;17.982;2023-07-20T00:35:43;8.70;;;3.90;;
77012;SDS011;67260;53.130;17.982;2023-07-20T00:38:12;7.30;;;3.70;;
77012;SDS011;67260;53.130;17.982;2023-07-20T00:40:38;8.70;;;3.70;;
77012;SDS011;67260;53.130;17.982;2023-07-20T00:43:05;8.20;;;3.80;;
77012;SDS011;67260;53.130;17.982;2023-07-20T00:45:32;7.40;;;3.70;;
77012;SDS011;67260;53.130;17.982;2023-07-20T00:47:59;6.00;;;3.60;;
77012;SDS011;67260;53.130;17.982;2023-07-20T00:50:28;7.10;;;4.00;;
77012;SDS011;67260;53.130;17.982;2023-07-20T00:52:55;5.70;;;3.70;;
77012;SDS011;67260;53.130;17.982;2023-07-20T00:55:23;6.70;;;3.80;;
77012;SDS011;67260;53.130;17.982;2023-07-20T00:57:52;6.50;;;3.70;;
77012;SDS011;67260;53.130;17.982;2023-07-20T01:02:45;6.90;;;3.40;;
77012;SDS011;67260;53.130;17.982;2023-07-20T01:05:12;6.10;;;3.10;;
77012;SDS011;67260;53.130;17.982;2023-07-20T01:07:49;6.30;;;3.70;;
77012;SDS011;67260;53.130;17.982;2023-07-20T01:12:47;7.20;;;3.80;;
77012;SDS011;67260;53.130;17.982;2023-07-20T01:15:17;7.10;;;3.70;;
77012;SDS011;67260;53.130;17.982;2023-07-20T01:17:43;6.60;;;3.60;;
77012;SDS011;67260;53.130;17.982;2023-07-20T01:20:11;7.70;;;3.20;;
77012;SDS011;67260;53.130;17.982;2023-07-20T01:25:27;5.80;;;3.50;;
77012;SDS011;67260;53.130;17.982;2023-07-20T01:28:19;5.40;;;3.30;;
77012;SDS011;67260;53.130;17.982;2023-07-20T01:31:23;6.10;;;3.20;;
77012;SDS011;67260;53.130;17.982;2023-07-20T01:33:52;7.30;;;3.50;;
77012;SDS011;67260;53.130;17.982;2023-07-20T01:36:21;5.90;;;3.40;;
77012;SDS011;67260;53.130;17.982;2023-07-20T01:38:50;8.70;;;3.80;;
77012;SDS011;67260;53.130;17.982;2023-07-20T01:41:17;6.20;;;3.60;;
77012;SDS011;67260;53.130;17.982;2023-07-20T01:43:45;9.80;;;4.20;;
77012;SDS011;67260;53.130;17.982;2023-07-20T01:46:11;7.20;;;3.80;;
77012;SDS011;67260;53.130;17.982;2023-07-20T01:48:39;6.80;;;3.60;;
77012;SDS011;67260;53.130;17.982;2023-07-20T01:51:05;8.30;;;4.20;;
77012;SDS011;67260;53.130;17.982;2023-07-20T01:53:31;6.00;;;3.80;;
77012;SDS011;67260;53.130;17.982;2023-07-20T01:58:23;6.90;;;3.80;;
77012;SDS011;67260;53.130;17.982;2023-07-20T02:00:50;6.90;;;4.00;;
77012;SDS011;67260;53.130;17.982;2023-07-20T02:03:16;7.80;;;4.20;;
77012;SDS011;67260;53.130;17.982;2023-07-20T02:05:42;9.10;;;5.00;;
77012;SDS011;67260;53.130;17.982;2023-07-20T02:08:09;8.00;;;4.10;;
77012;SDS011;67260;53.130;17.982;2023-07-20T02:10:35;7.70;;;3.90;;
77012;SDS011;67260;53.130;17.982;2023-07-20T02:13:01;6.00;;;3.70;;
77012;SDS011;67260;53.130;17.982;2023-07-20T02:15:28;9.20;;;4.30;;
77012;SDS011;67260;53.130;17.982;2023-07-20T02:17:54;6.50;;;4.00;;
77012;SDS011;67260;53.130;17.982;2023-07-20T02:20:20;6.40;;;3.90;;
77012;SDS011;67260;53.130;17.982;2023-07-20T02:22:47;7.60;;;4.40;;
77012;SDS011;67260;53.130;17.982;2023-07-20T02:25:13;6.50;;;4.30;;
77012;SDS011;67260;53.130;17.982;2023-07-20T02:27:39;7.60;;;4.10;;
77012;SDS011;67260;53.130;17.982;2023-07-20T02:30:05;7.10;;;3.90;;
77012;SDS011;67260;53.130;17.982;2023-07-20T02:32:33;6.40;;;3.80;;
77012;SDS011;67260;53.130;17.982;2023-07-20T02:34:59;6.40;;;3.50;;
77012;SDS011;67260;53.130;17.982;2023-07-20T02:37:26;9.40;;;4.00;;
77012;SDS011;67260;53.130;17.982;2023-07-20T02:39:52;5.30;;;3.60;;
77012;SDS011;67260;53.130;17.982;2023-07-20T02:42:18;5.80;;;3.50;;
77012;SDS011;67260;53.130;17.982;2023-07-20T02:44:45;7.80;;;3.50;;
77012;SDS011;67260;53.130;17.982;2023-07-20T02:47:11;8.00;;;3.50;;
77012;SDS011;67260;53.130;17.982;2023-07-20T02:49:37;6.20;;;3.40;;
77012;SDS011;67260;53.130;17.982;2023-07-20T02:52:03;6.30;;;3.90;;
77012;SDS011;67260;53.130;17.982;2023-07-20T02:54:29;7.10;;;3.70;;
77012;SDS011;67260;53.130;17.982;2023-07-20T02:56:57;5.30;;;3.10;;
77012;SDS011;67260;53.130;17.982;2023-07-20T02:59:23;6.30;;;3.30;;
77012;SDS011;67260;53.130;17.982;2023-07-20T03:01:49;4.80;;;3.30;;
77012;SDS011;67260;53.130;17.982;2023-07-20T03:04:15;5.80;;;3.10;;
77012;SDS011;67260;53.130;17.982;2023-07-20T03:06:42;7.40;;;3.30;;
77012;SDS011;67260;53.130;17.982;2023-07-20T03:09:09;7.30;;;3.30;;
77012;SDS011;67260;53.130;17.982;2023-07-20T03:11:35;5.80;;;3.50;;
77012;SDS011;67260;53.130;17.982;2023-07-20T03:14:01;7.50;;;3.70;;
77012;SDS011;67260;53.130;17.982;2023-07-20T03:16:27;7.60;;;3.90;;
77012;SDS011;67260;53.130;17.982;2023-07-20T03:18:53;7.40;;;4.10;;
77012;SDS011;67260;53.130;17.982;2023-07-20T03:21:19;5.60;;;3.70;;
77012;SDS011;67260;53.130;17.982;2023-07-20T03:23:45;5.60;;;3.20;;
77012;SDS011;67260;53.130;17.982;2023-07-20T03:26:11;6.20;;;3.90;;
77012;SDS011;67260;53.130;17.982;2023-07-20T03:28:38;6.00;;;3.50;;
77012;SDS011;67260;53.130;17.982;2023-07-20T03:31:04;5.90;;;3.70;;
77012;SDS011;67260;53.130;17.982;2023-07-20T03:33:34;7.40;;;3.40;;
77012;SDS011;67260;53.130;17.982;2023-07-20T03:36:00;7.90;;;3.40;;
77012;SDS011;67260;53.130;17.982;2023-07-20T03:38:27;6.60;;;3.20;;
77012;SDS011;67260;53.130;17.982;2023-07-20T03:40:57;5.50;;;3.40;;
77012;SDS011;67260;53.130;17.982;2023-07-20T03:43:25;6.40;;;3.30;;
77012;SDS011;67260;53.130;17.982;2023-07-20T03:45:53;7.10;;;3.60;;
77012;SDS011;67260;53.130;17.982;2023-07-20T03:48:21;6.50;;;3.20;;
77012;SDS011;67260;53.130;17.982;2023-07-20T03:50:48;7.00;;;3.30;;
77012;SDS011;67260;53.130;17.982;2023-07-20T03:53:15;6.30;;;3.00;;
77012;SDS011;67260;53.130;17.982;2023-07-20T03:55:46;5.50;;;3.10;;
77012;SDS011;67260;53.130;17.982;2023-07-20T03:58:13;7.10;;;3.70;;
77012;SDS011;67260;53.130;17.982;2023-07-20T04:00:43;4.70;;;3.20;;
77012;SDS011;67260;53.130;17.982;2023-07-20T04:03:11;7.20;;;4.10;;
77012;SDS011;67260;53.130;17.982;2023-07-20T04:05:37;9.60;;;6.30;;
77012;SDS011;67260;53.130;17.982;2023-07-20T04:08:03;7.10;;;4.50;;
77012;SDS011;67260;53.130;17.982;2023-07-20T04:12:56;7.30;;;4.30;;
77012;SDS011;67260;53.130;17.982;2023-07-20T04:15:22;8.60;;;4.70;;
77012;SDS011;67260;53.130;17.982;2023-07-20T04:17:48;7.30;;;4.20;;
77012;SDS011;67260;53.130;17.982;2023-07-20T04:20:15;6.50;;;3.90;;
77012;SDS011;67260;53.130;17.982;2023-07-20T04:22:41;5.60;;;3.50;;
77012;SDS011;67260;53.130;17.982;2023-07-20T04:25:09;6.10;;;3.50;;
77012;SDS011;67260;53.130;17.982;2023-07-20T04:27:36;5.90;;;3.00;;
77012;SDS011;67260;53.130;17.982;2023-07-20T04:30:02;7.00;;;3.30;;
77012;SDS011;67260;53.130;17.982;2023-07-20T04:32:29;4.70;;;2.70;;
77012;SDS011;67260;53.130;17.982;2023-07-20T04:35:00;6.20;;;3.50;;
77012;SDS011;67260;53.130;17.982;2023-07-20T04:37:26;5.40;;;2.80;;
77012;SDS011;67260;53.130;17.982;2023-07-20T04:39:52;4.80;;;3.10;;
77012;SDS011;67260;53.130;17.982;2023-07-20T04:42:18;7.10;;;3.00;;
77012;SDS011;67260;53.130;17.982;2023-07-20T04:44:46;6.70;;;2.90;;
77012;SDS011;67260;53.130;17.982;2023-07-20T04:47:13;6.50;;;3.00;;
77012;SDS011;67260;53.130;17.982;2023-07-20T04:49:39;5.70;;;2.70;;
77012;SDS011;67260;53.130;17.982;2023-07-20T04:52:05;5.70;;;2.70;;
77012;SDS011;67260;53.130;17.982;2023-07-20T04:54:31;7.60;;;2.90;;
77012;SDS011;67260;53.130;17.982;2023-07-20T04:56:58;5.70;;;3.30;;
77012;SDS011;67260;53.130;17.982;2023-07-20T04:59:24;5.50;;;2.80;;
77012;SDS011;67260;53.130;17.982;2023-07-20T05:04:17;5.20;;;2.30;;
77012;SDS011;67260;53.130;17.982;2023-07-20T05:09:10;4.00;;;2.20;;
77012;SDS011;67260;53.130;17.982;2023-07-20T05:11:37;5.70;;;2.30;;
77012;SDS011;67260;53.130;17.982;2023-07-20T05:14:03;5.10;;;2.20;;
77012;SDS011;67260;53.130;17.982;2023-07-20T05:19:00;5.00;;;2.40;;
77012;SDS011;67260;53.130;17.982;2023-07-20T05:21:26;6.70;;;2.50;;
77012;SDS011;67260;53.130;17.982;2023-07-20T05:23:52;5.40;;;2.30;;
77012;SDS011;67260;53.130;17.982;2023-07-20T05:26:20;4.60;;;2.40;;
77012;SDS011;67260;53.130;17.982;2023-07-20T05:31:12;5.20;;;2.20;;
77012;SDS011;67260;53.130;17.982;2023-07-20T05:33:41;5.50;;;2.50;;
77012;SDS011;67260;53.130;17.982;2023-07-20T05:36:07;3.50;;;1.90;;
77012;SDS011;67260;53.130;17.982;2023-07-20T05:38:34;4.90;;;2.50;;
77012;SDS011;67260;53.130;17.982;2023-07-20T05:41:00;5.40;;;2.30;;
77012;SDS011;67260;53.130;17.982;2023-07-20T05:43:27;5.00;;;2.50;;
77012;SDS011;67260;53.130;17.982;2023-07-20T05:45:56;4.20;;;2.30;;
77012;SDS011;67260;53.130;17.982;2023-07-20T05:48:23;5.40;;;1.90;;
77012;SDS011;67260;53.130;17.982;2023-07-20T05:50:55;4.00;;;1.90;;
77012;SDS011;67260;53.130;17.982;2023-07-20T05:53:25;6.20;;;2.20;;
77012;SDS011;67260;53.130;17.982;2023-07-20T05:55:51;4.70;;;2.10;;
77012;SDS011;67260;53.130;17.982;2023-07-20T05:58:21;5.30;;;1.80;;
77012;SDS011;67260;53.130;17.982;2023-07-20T06:00:50;3.30;;;1.70;;
77012;SDS011;67260;53.130;17.982;2023-07-20T06:03:16;4.90;;;2.20;;
77012;SDS011;67260;53.130;17.982;2023-07-20T06:05:42;6.70;;;2.80;;
77012;SDS011;67260;53.130;17.982;2023-07-20T06:08:09;5.00;;;2.40;;
77012;SDS011;67260;53.130;17.982;2023-07-20T06:10:42;5.40;;;2.50;;
77012;SDS011;67260;53.130;17.982;2023-07-20T06:18:04;3.70;;;2.10;;
77012;SDS011;67260;53.130;17.982;2023-07-20T06:20:30;5.00;;;2.00;;
77012;SDS011;67260;53.130;17.982;2023-07-20T06:25:22;4.60;;;2.20;;
77012;SDS011;67260;53.130;17.982;2023-07-20T06:27:49;4.30;;;1.90;;
77012;SDS011;67260;53.130;17.982;2023-07-20T06:30:19;2.80;;;1.50;;
77012;SDS011;67260;53.130;17.982;2023-07-20T06:32:45;4.60;;;2.00;;
77012;SDS011;67260;53.130;17.982;2023-07-20T06:35:12;3.90;;;1.70;;
77012;SDS011;67260;53.130;17.982;2023-07-20T06:37:38;7.50;;;2.10;;
77012;SDS011;67260;53.130;17.982;2023-07-20T06:40:05;4.70;;;1.80;;
77012;SDS011;67260;53.130;17.982;2023-07-20T06:42:34;3.80;;;1.90;;
77012;SDS011;67260;53.130;17.982;2023-07-20T06:45:01;3.60;;;1.60;;
77012;SDS011;67260;53.130;17.982;2023-07-20T06:47:27;5.00;;;1.90;;
77012;SDS011;67260;53.130;17.982;2023-07-20T06:49:53;3.20;;;1.30;;
77012;SDS011;67260;53.130;17.982;2023-07-20T06:52:22;3.40;;;1.30;;
77012;SDS011;67260;53.130;17.982;2023-07-20T06:54:48;3.70;;;1.70;;
77012;SDS011;67260;53.130;17.982;2023-07-20T06:59:40;4.50;;;1.60;;
77012;SDS011;67260;53.130;17.982;2023-07-20T07:04:32;3.50;;;1.60;;
77012;SDS011;67260;53.130;17.982;2023-07-20T07:06:58;3.60;;;1.60;;
77012;SDS011;67260;53.130;17.982;2023-07-20T07:09:24;4.20;;;1.50;;
77012;SDS011;67260;53.130;17.982;2023-07-20T07:11:50;4.30;;;1.40;;
77012;SDS011;67260;53.130;17.982;2023-07-20T07:14:19;3.10;;;1.40;;
77012;SDS011;67260;53.130;17.982;2023-07-20T07:16:45;3.50;;;1.70;;
77012;SDS011;67260;53.130;17.982;2023-07-20T07:19:12;3.60;;;1.30;;
77012;SDS011;67260;53.130;17.982;2023-07-20T07:21:40;3.10;;;1.20;;
77012;SDS011;67260;53.130;17.982;2023-07-20T07:24:06;4.20;;;1.50;;
77012;SDS011;67260;53.130;17.982;2023-07-20T07:26:33;3.80;;;1.40;;
77012;SDS011;67260;53.130;17.982;2023-07-20T07:29:00;4.40;;;1.60;;
77012;SDS011;67260;53.130;17.982;2023-07-20T07:31:28;3.40;;;1.50;;
77012;SDS011;67260;53.130;17.982;2023-07-20T07:33:56;4.00;;;1.30;;
77012;SDS011;67260;53.130;17.982;2023-07-20T07:36:22;6.00;;;1.30;;
77012;SDS011;67260;53.130;17.982;2023-07-20T07:38:52;3.60;;;1.40;;
77012;SDS011;67260;53.130;17.982;2023-07-20T07:41:18;8.30;;;1.60;;
77012;SDS011;67260;53.130;17.982;2023-07-20T07:43:47;5.80;;;1.60;;
77012;SDS011;67260;53.130;17.982;2023-07-20T07:46:13;7.10;;;1.50;;
77012;SDS011;67260;53.130;17.982;2023-07-20T07:48:39;5.70;;;1.40;;
77012;SDS011;67260;53.130;17.982;2023-07-20T07:51:06;2.60;;;1.00;;
77012;SDS011;67260;53.130;17.982;2023-07-20T07:53:32;3.30;;;1.10;;
77012;SDS011;67260;53.130;17.982;2023-07-20T07:55:58;3.00;;;1.00;;
77012;SDS011;67260;53.130;17.982;2023-07-20T07:58:24;2.30;;;0.90;;
77012;SDS011;67260;53.130;17.982;2023-07-20T08:00:50;4.80;;;1.00;;
77012;SDS011;67260;53.130;17.982;2023-07-20T08:03:16;2.40;;;0.90;;
77012;SDS011;67260;53.130;17.982;2023-07-20T08:05:42;2.60;;;0.90;;
77012;SDS011;67260;53.130;17.982;2023-07-20T08:08:08;3.10;;;1.00;;
77012;SDS011;67260;53.130;17.982;2023-07-20T08:10:35;3.30;;;1.10;;
77012;SDS011;67260;53.130;17.982;2023-07-20T08:13:01;2.00;;;0.80;;
77012;SDS011;67260;53.130;17.982;2023-07-20T08:15:27;2.90;;;0.90;;
77012;SDS011;67260;53.130;17.982;2023-07-20T08:17:53;6.40;;;1.20;;
77012;SDS011;67260;53.130;17.982;2023-07-20T08:20:19;4.80;;;1.00;;
77012;SDS011;67260;53.130;17.982;2023-07-20T08:22:50;4.30;;;1.10;;
77012;SDS011;67260;53.130;17.982;2023-07-20T08:25:16;3.40;;;1.20;;
77012;SDS011;67260;53.130;17.982;2023-07-20T08:27:43;3.60;;;1.80;;
77012;SDS011;67260;53.130;17.982;2023-07-20T08:30:11;3.40;;;1.30;;
77012;SDS011;67260;53.130;17.982;2023-07-20T08:32:37;5.30;;;1.00;;
77012;SDS011;67260;53.130;17.982;2023-07-20T08:35:04;4.10;;;1.10;;
77012;SDS011;67260;53.130;17.982;2023-07-20T08:37:30;2.40;;;1.10;;
77012;SDS011;67260;53.130;17.982;2023-07-20T08:39:56;3.80;;;1.00;;
77012;SDS011;67260;53.130;17.982;2023-07-20T08:42:22;3.70;;;1.30;;
77012;SDS011;67260;53.130;17.982;2023-07-20T08:44:48;7.70;;;1.40;;
77012;SDS011;67260;53.130;17.982;2023-07-20T08:47:18;2.20;;;0.90;;
77012;SDS011;67260;53.130;17.982;2023-07-20T08:49:50;2.60;;;0.90;;
77012;SDS011;67260;53.130;17.982;2023-07-20T08:52:17;4.20;;;1.10;;
77012;SDS011;67260;53.130;17.982;2023-07-20T08:55:20;3.20;;;1.10;;
77012;SDS011;67260;53.130;17.982;2023-07-20T08:57:49;3.80;;;1.10;;
77012;SDS011;67260;53.130;17.982;2023-07-20T09:00:21;2.70;;;1.10;;
77012;SDS011;67260;53.130;17.982;2023-07-20T09:02:49;4.20;;;1.20;;
77012;SDS011;67260;53.130;17.982;2023-07-20T09:05:22;2.60;;;1.00;;
77012;SDS011;67260;53.130;17.982;2023-07-20T09:07:51;2.50;;;1.00;;
77012;SDS011;67260;53.130;17.982;2023-07-20T09:10:22;2.50;;;1.00;;
77012;SDS011;67260;53.130;17.982;2023-07-20T09:13:19;3.20;;;1.10;;
77012;SDS011;67260;53.130;17.982;2023-07-20T09:15:54;3.00;;;1.00;;
77012;SDS011;67260;53.130;17.982;2023-07-20T09:18:29;5.20;;;1.10;;
77012;SDS011;67260;53.130;17.982;2023-07-20T09:21:23;3.20;;;1.00;;
77012;SDS011;67260;53.130;17.982;2023-07-20T09:24:03;4.90;;;1.10;;
77012;SDS011;67260;53.130;17.982;2023-07-20T09:27:00;4.90;;;0.90;;
77012;SDS011;67260;53.130;17.982;2023-07-20T09:29:30;1.70;;;0.80;;
77012;SDS011;67260;53.130;17.982;2023-07-20T09:32:25;3.10;;;0.70;;
77012;SDS011;67260;53.130;17.982;2023-07-20T09:34:54;5.90;;;1.10;;
77012;SDS011;67260;53.130;17.982;2023-07-20T09:37:26;1.50;;;0.70;;
77012;SDS011;67260;53.130;17.982;2023-07-20T09:39:53;2.30;;;0.90;;
77012;SDS011;67260;53.130;17.982;2023-07-20T09:42:24;2.30;;;0.70;;
77012;SDS011;67260;53.130;17.982;2023-07-20T09:44:55;1.40;;;0.70;;
77012;SDS011;67260;53.130;17.982;2023-07-20T09:47:22;4.10;;;0.90;;
77012;SDS011;67260;53.130;17.982;2023-07-20T09:49:49;4.50;;;0.80;;
77012;SDS011;67260;53.130;17.982;2023-07-20T09:52:17;7.40;;;0.90;;
77012;SDS011;67260;53.130;17.982;2023-07-20T09:54:44;2.80;;;0.80;;
77012;SDS011;67260;53.130;17.982;2023-07-20T09:57:12;3.10;;;1.00;;
77012;SDS011;67260;53.130;17.982;2023-07-20T09:59:41;4.80;;;1.00;;
77012;SDS011;67260;53.130;17.982;2023-07-20T10:02:13;2.20;;;0.70;;
77012;SDS011;67260;53.130;17.982;2023-07-20T10:05:02;6.30;;;1.00;;
77012;SDS011;67260;53.130;17.982;2023-07-20T10:07:43;2.80;;;0.90;;
77012;SDS011;67260;53.130;17.982;2023-07-20T10:10:18;1.80;;;0.80;;
77012;SDS011;67260;53.130;17.982;2023-07-20T10:12:46;3.90;;;0.60;;
77012;SDS011;67260;53.130;17.982;2023-07-20T10:15:29;3.50;;;1.00;;
77012;SDS011;67260;53.130;17.982;2023-07-20T10:18:12;4.50;;;0.80;;
77012;SDS011;67260;53.130;17.982;2023-07-20T10:20:44;4.70;;;0.90;;
77012;SDS011;67260;53.130;17.982;2023-07-20T10:23:25;2.40;;;1.00;;
77012;SDS011;67260;53.130;17.982;2023-07-20T10:26:06;2.20;;;0.70;;
77012;SDS011;67260;53.130;17.982;2023-07-20T10:28:34;2.20;;;0.80;;
77012;SDS011;67260;53.130;17.982;2023-07-20T10:31:00;2.40;;;0.90;;
77012;SDS011;67260;53.130;17.982;2023-07-20T10:33:30;3.20;;;0.80;;
77012;SDS011;67260;53.130;17.982;2023-07-20T10:36:00;7.70;;;1.00;;
77012;SDS011;67260;53.130;17.982;2023-07-20T10:41:22;2.10;;;0.80;;
77012;SDS011;67260;53.130;17.982;2023-07-20T10:43:58;3.00;;;0.90;;
77012;SDS011;67260;53.130;17.982;2023-07-20T10:49:07;2.50;;;1.00;;
77012;SDS011;67260;53.130;17.982;2023-07-20T10:51:47;3.50;;;0.80;;
77012;SDS011;67260;53.130;17.982;2023-07-20T10:56:47;9.70;;;1.40;;
77012;SDS011;67260;53.130;17.982;2023-07-20T11:01:49;1.80;;;1.00;;
77012;SDS011;67260;53.130;17.982;2023-07-20T11:04:16;2.80;;;1.00;;
77012;SDS011;67260;53.130;17.982;2023-07-20T11:06:45;3.30;;;0.80;;
77012;SDS011;67260;53.130;17.982;2023-07-20T11:09:22;5.40;;;0.90;;
77012;SDS011;67260;53.130;17.982;2023-07-20T11:12:14;3.40;;;0.90;;
77012;SDS011;67260;53.130;17.982;2023-07-20T11:14:55;1.30;;;0.80;;
77012;SDS011;67260;53.130;17.982;2023-07-20T11:17:29;7.00;;;1.30;;
77012;SDS011;67260;53.130;17.982;2023-07-20T11:20:00;8.20;;;1.20;;
77012;SDS011;67260;53.130;17.982;2023-07-20T11:22:27;5.30;;;1.10;;
77012;SDS011;67260;53.130;17.982;2023-07-20T11:24:55;5.60;;;1.20;;
77012;SDS011;67260;53.130;17.982;2023-07-20T11:27:25;4.70;;;1.20;;
77012;SDS011;67260;53.130;17.982;2023-07-20T11:29:51;7.70;;;1.10;;
77012;SDS011;67260;53.130;17.982;2023-07-20T11:32:24;1.90;;;1.00;;
77012;SDS011;67260;53.130;17.982;2023-07-20T11:34:51;3.10;;;0.90;;
77012;SDS011;67260;53.130;17.982;2023-07-20T11:37:18;2.30;;;0.90;;
77012;SDS011;67260;53.130;17.982;2023-07-20T11:39:44;4.90;;;0.90;;
77012;SDS011;67260;53.130;17.982;2023-07-20T11:42:10;3.40;;;1.20;;
77012;SDS011;67260;53.130;17.982;2023-07-20T11:44:40;13.80;;;1.30;;
77012;SDS011;67260;53.130;17.982;2023-07-20T11:47:09;10.90;;;1.70;;
77012;SDS011;67260;53.130;17.982;2023-07-20T11:49:38;9.90;;;1.80;;
77012;SDS011;67260;53.130;17.982;2023-07-20T11:52:09;7.00;;;3.60;;
77012;SDS011;67260;53.130;17.982;2023-07-20T11:54:39;3.80;;;1.10;;
77012;SDS011;67260;53.130;17.982;2023-07-20T11:57:06;6.40;;;1.30;;
77012;SDS011;67260;53.130;17.982;2023-07-20T11:59:32;7.10;;;1.50;;
77012;SDS011;67260;53.130;17.982;2023-07-20T12:02:02;4.80;;;1.40;;
77012;SDS011;67260;53.130;17.982;2023-07-20T12:04:31;4.90;;;1.40;;
77012;SDS011;67260;53.130;17.982;2023-07-20T12:06:59;3.90;;;1.20;;
77012;SDS011;67260;53.130;17.982;2023-07-20T12:09:26;3.80;;;1.10;;
77012;SDS011;67260;53.130;17.982;2023-07-20T12:11:53;5.20;;;2.10;;
77012;SDS011;67260;53.130;17.982;2023-07-20T12:14:19;4.60;;;1.40;;
77012;SDS011;67260;53.130;17.982;2023-07-20T12:16:51;2.20;;;1.10;;
77012;SDS011;67260;53.130;17.982;2023-07-20T12:19:19;3.90;;;1.20;;
77012;SDS011;67260;53.130;17.982;2023-07-20T12:21:45;3.60;;;1.40;;
77012;SDS011;67260;53.130;17.982;2023-07-20T12:24:11;3.30;;;1.20;;
77012;SDS011;67260;53.130;17.982;2023-07-20T12:29:03;2.50;;;1.10;;
77012;SDS011;67260;53.130;17.982;2023-07-20T12:31:30;2.30;;;1.10;;
77012;SDS011;67260;53.130;17.982;2023-07-20T12:33:58;3.20;;;1.20;;
77012;SDS011;67260;53.130;17.982;2023-07-20T12:38:52;4.10;;;1.20;;
77012;SDS011;67260;53.130;17.982;2023-07-20T12:41:18;2.20;;;0.80;;
77012;SDS011;67260;53.130;17.982;2023-07-20T12:43:46;4.20;;;1.50;;
77012;SDS011;67260;53.130;17.982;2023-07-20T12:46:13;3.60;;;1.20;;
77012;SDS011;67260;53.130;17.982;2023-07-20T12:48:39;2.40;;;1.30;;
77012;SDS011;67260;53.130;17.982;2023-07-20T12:51:11;3.10;;;1.10;;
77012;SDS011;67260;53.130;17.982;2023-07-20T12:53:39;2.40;;;1.00;;
77012;SDS011;67260;53.130;17.982;2023-07-20T12:56:06;3.30;;;1.10;;
77012;SDS011;67260;53.130;17.982;2023-07-20T12:58:32;2.30;;;0.90;;
77012;SDS011;67260;53.130;17.982;2023-07-20T13:01:12;2.60;;;1.10;;
77012;SDS011;67260;53.130;17.982;2023-07-20T13:03:40;4.40;;;1.40;;
77012;SDS011;67260;53.130;17.982;2023-07-20T13:06:06;2.00;;;1.00;;
77012;SDS011;67260;53.130;17.982;2023-07-20T13:08:44;2.40;;;1.00;;
77012;SDS011;67260;53.130;17.982;2023-07-20T13:11:10;3.30;;;1.10;;
77012;SDS011;67260;53.130;17.982;2023-07-20T13:13:48;3.30;;;1.00;;
77012;SDS011;67260;53.130;17.982;2023-07-20T13:16:17;1.90;;;1.00;;
77012;SDS011;67260;53.130;17.982;2023-07-20T13:18:52;2.00;;;1.10;;
77012;SDS011;67260;53.130;17.982;2023-07-20T13:21:19;2.80;;;1.20;;
77012;SDS011;67260;53.130;17.982;2023-07-20T13:24:01;2.80;;;1.20;;
77012;SDS011;67260;53.130;17.982;2023-07-20T13:26:33;5.90;;;1.30;;
77012;SDS011;67260;53.130;17.982;2023-07-20T13:29:05;2.40;;;1.00;;
77012;SDS011;67260;53.130;17.982;2023-07-20T13:31:39;2.60;;;1.10;;
77012;SDS011;67260;53.130;17.982;2023-07-20T13:34:05;1.50;;;1.00;;
77012;SDS011;67260;53.130;17.982;2023-07-20T13:36:44;2.40;;;1.20;;
77012;SDS011;67260;53.130;17.982;2023-07-20T13:39:13;2.70;;;1.00;;
77012;SDS011;67260;53.130;17.982;2023-07-20T13:41:39;1.60;;;1.00;;
77012;SDS011;67260;53.130;17.982;2023-07-20T13:44:06;1.70;;;0.90;;
77012;SDS011;67260;53.130;17.982;2023-07-20T13:46:34;1.60;;;1.00;;
77012;SDS011;67260;53.130;17.982;2023-07-20T13:51:29;1.80;;;0.90;;
77012;SDS011;67260;53.130;17.982;2023-07-20T13:53:56;2.40;;;1.30;;
77012;SDS011;67260;53.130;17.982;2023-07-20T13:56:23;2.40;;;1.00;;
77012;SDS011;67260;53.130;17.982;2023-07-20T13:58:53;1.90;;;0.80;;
77012;SDS011;67260;53.130;17.982;2023-07-20T14:01:20;2.00;;;1.00;;
77012;SDS011;67260;53.130;17.982;2023-07-20T14:03:49;0.90;;;0.70;;
77012;SDS011;67260;53.130;17.982;2023-07-20T14:06:23;1.50;;;0.70;;
77012;SDS011;67260;53.130;17.982;2023-07-20T14:08:50;1.40;;;0.70;;
77012;SDS011;67260;53.130;17.982;2023-07-20T14:11:18;1.00;;;0.70;;
77012;SDS011;67260;53.130;17.982;2023-07-20T14:13:44;1.00;;;0.70;;
77012;SDS011;67260;53.130;17.982;2023-07-20T14:16:11;1.10;;;0.70;;
77012;SDS011;67260;53.130;17.982;2023-07-20T14:18:37;1.60;;;0.70;;
77012;SDS011;67260;53.130;17.982;2023-07-20T14:21:07;2.20;;;0.80;;
77012;SDS011;67260;53.130;17.982;2023-07-20T14:23:33;0.80;;;0.60;;
77012;SDS011;67260;53.130;17.982;2023-07-20T14:26:00;2.60;;;0.90;;
77012;SDS011;67260;53.130;17.982;2023-07-20T14:28:26;2.20;;;0.90;;
77012;SDS011;67260;53.130;17.982;2023-07-20T14:30:53;1.10;;;0.60;;
77012;SDS011;67260;53.130;17.982;2023-07-20T14:33:24;2.10;;;0.90;;
77012;SDS011;67260;53.130;17.982;2023-07-20T14:35:54;1.20;;;0.70;;
77012;SDS011;67260;53.130;17.982;2023-07-20T14:38:21;1.60;;;0.70;;
77012;SDS011;67260;53.130;17.982;2023-07-20T14:43:15;1.20;;;0.70;;
77012;SDS011;67260;53.130;17.982;2023-07-20T14:45:41;2.10;;;0.90;;
77012;SDS011;67260;53.130;17.982;2023-07-20T14:48:11;1.20;;;0.70;;
77012;SDS011;67260;53.130;17.982;2023-07-20T14:50:43;1.20;;;0.60;;
77012;SDS011;67260;53.130;17.982;2023-07-20T14:53:23;2.00;;;0.70;;
77012;SDS011;67260;53.130;17.982;2023-07-20T14:55:58;1.10;;;0.60;;
77012;SDS011;67260;53.130;17.982;2023-07-20T14:58:31;2.60;;;1.00;;
77012;SDS011;67260;53.130;17.982;2023-07-20T15:01:03;1.10;;;0.80;;
77012;SDS011;67260;53.130;17.982;2023-07-20T15:03:32;1.50;;;0.80;;
77012;SDS011;67260;53.130;17.982;2023-07-20T15:08:26;1.50;;;0.70;;
77012;SDS011;67260;53.130;17.982;2023-07-20T15:10:53;1.30;;;0.80;;
77012;SDS011;67260;53.130;17.982;2023-07-20T15:13:21;1.60;;;0.90;;
77012;SDS011;67260;53.130;17.982;2023-07-20T15:15:47;2.10;;;0.80;;
77012;SDS011;67260;53.130;17.982;2023-07-20T15:18:14;1.80;;;0.80;;
77012;SDS011;67260;53.130;17.982;2023-07-20T15:20:50;3.30;;;1.10;;
77012;SDS011;67260;53.130;17.982;2023-07-20T15:23:19;3.20;;;1.10;;
77012;SDS011;67260;53.130;17.982;2023-07-20T15:25:46;4.80;;;1.70;;
77012;SDS011;67260;53.130;17.982;2023-07-20T15:28:13;2.30;;;1.10;;
77012;SDS011;67260;53.130;17.982;2023-07-20T15:33:05;4.10;;;1.50;;
77012;SDS011;67260;53.130;17.982;2023-07-20T15:35:31;4.20;;;2.00;;
77012;SDS011;67260;53.130;17.982;2023-07-20T15:37:58;1.20;;;0.70;;
77012;SDS011;67260;53.130;17.982;2023-07-20T15:40:25;1.60;;;1.00;;
77012;SDS011;67260;53.130;17.982;2023-07-20T15:42:51;1.80;;;0.70;;
77012;SDS011;67260;53.130;17.982;2023-07-20T15:45:17;1.50;;;0.80;;